createdAt,value
2019-01-12T00:01:02.344Z,2.90
2019-01-12T00:04:05.357Z,2.90
2019-01-12T00:07:08.085Z,2.90
2019-01-12T00:10:10.791Z,2.80
2019-01-12T00:13:13.625Z,2.60
2019-01-12T00:16:16.296Z,2.60
2019-01-12T00:19:18.908Z,2.50
2019-01-12T00:22:21.567Z,2.60
2019-01-12T00:25:24.498Z,2.60
2019-01-12T00:28:27.182Z,2.60
2019-01-12T00:31:29.778Z,2.60
2019-01-12T00:34:32.447Z,2.60
2019-01-12T00:37:35.028Z,2.60
2019-01-12T00:40:37.800Z,2.50
2019-01-12T00:43:40.435Z,2.50
2019-01-12T00:46:43.128Z,2.40
2019-01-12T00:49:45.866Z,2.40
2019-01-12T00:52:48.449Z,2.30
2019-01-12T00:55:51.063Z,2.20
2019-01-12T00:58:53.797Z,2.20
2019-01-12T01:01:57.330Z,2.20
2019-01-12T01:05:01.512Z,2.20
2019-01-12T01:08:05.395Z,2.10
2019-01-12T01:11:08.076Z,2.10
2019-01-12T01:14:10.770Z,2.00
2019-01-12T01:17:13.376Z,1.90
2019-01-12T01:20:16.769Z,1.90
2019-01-12T01:23:19.550Z,1.90
2019-01-12T01:26:22.467Z,2.00
2019-01-12T01:29:25.225Z,2.00
2019-01-12T01:32:27.838Z,1.90
2019-01-12T01:35:30.428Z,1.90
2019-01-12T01:38:33.111Z,1.80
2019-01-12T01:41:35.784Z,1.80
2019-01-12T01:44:38.486Z,1.70
2019-01-12T01:47:41.157Z,1.70
2019-01-12T01:50:43.831Z,1.80
2019-01-12T01:53:46.677Z,1.80
2019-01-12T01:56:49.423Z,1.80
2019-01-12T01:59:52.147Z,1.80
2019-01-12T02:02:54.803Z,1.80
2019-01-12T02:05:58.280Z,1.80
2019-01-12T02:09:00.995Z,1.80
2019-01-12T02:16:03.927Z,1.70
2019-01-12T02:19:06.734Z,1.60
2019-01-12T02:22:09.381Z,1.50
2019-01-12T02:25:12.323Z,1.40
2019-01-12T02:28:14.892Z,1.30
2019-01-12T02:31:17.607Z,1.20
2019-01-12T02:34:39.687Z,1.10
2019-01-12T02:37:42.376Z,1.10
2019-01-12T02:40:45.065Z,1.00
2019-01-12T02:43:47.792Z,0.90
2019-01-12T02:46:50.509Z,0.70
2019-01-12T02:49:53.249Z,0.60
2019-01-12T02:52:55.793Z,0.50
2019-01-12T02:55:58.373Z,0.40
2019-01-12T02:59:01.075Z,0.40
2019-01-12T03:02:04.560Z,0.30
2019-01-12T03:05:07.279Z,0.30
2019-01-12T03:08:09.937Z,0.20
2019-01-12T03:11:15.331Z,0.20
2019-01-12T03:14:18.085Z,0.10
2019-01-12T03:17:21.873Z,0.10
2019-01-12T03:20:24.628Z,0.10
2019-01-12T03:23:27.346Z,0.10
2019-01-12T03:26:30.014Z,0.10
2019-01-12T03:29:32.680Z,0.00
2019-01-12T03:32:35.259Z,0.00
2019-01-12T03:35:38.038Z,0.00
2019-01-12T03:38:41.821Z,-0.10
2019-01-12T03:41:44.619Z,-0.10
2019-01-12T03:44:47.233Z,-0.10
2019-01-12T03:47:49.991Z,-0.10
2019-01-12T03:50:52.636Z,-0.20
2019-01-12T03:53:55.345Z,-0.20
2019-01-12T03:56:58.020Z,-0.30
2019-01-12T04:00:00.691Z,-0.30
2019-01-12T04:03:03.393Z,-0.40
2019-01-12T04:06:06.066Z,-0.40
2019-01-12T04:09:08.803Z,-0.40
2019-01-12T04:12:11.512Z,-0.40
2019-01-12T04:15:14.208Z,-0.50
2019-01-12T04:18:16.811Z,-0.60
2019-01-12T04:21:19.336Z,-0.60
2019-01-12T04:24:21.903Z,-0.60
2019-01-12T04:27:24.438Z,-0.50
2019-01-12T04:30:27.179Z,-0.50
2019-01-12T04:33:29.870Z,-0.40
2019-01-12T04:36:32.585Z,-0.30
2019-01-12T04:39:35.250Z,-0.10
2019-01-12T04:42:37.958Z,0.00
2019-01-12T04:50:04.611Z,0.30
2019-01-12T04:53:07.351Z,0.60
2019-01-12T04:56:10.076Z,0.70
2019-01-12T04:59:12.701Z,0.80
2019-01-12T05:02:15.412Z,0.90
2019-01-12T05:05:18.170Z,1.00
2019-01-12T05:08:20.801Z,1.00
2019-01-12T05:11:23.367Z,1.00
2019-01-12T05:14:26.247Z,1.10
2019-01-12T05:17:28.890Z,1.10
2019-01-12T05:20:31.554Z,1.20
2019-01-12T05:23:34.302Z,1.30
2019-01-12T05:26:36.989Z,1.30
2019-01-12T05:29:39.777Z,1.30
2019-01-12T05:32:42.452Z,1.30
2019-01-12T05:35:45.002Z,1.30
2019-01-12T05:38:47.575Z,1.30
2019-01-12T05:41:50.239Z,1.30
2019-01-12T05:48:51.014Z,1.30
2019-01-12T05:51:53.587Z,1.30
2019-01-12T05:54:56.252Z,1.30
2019-01-12T05:57:58.888Z,1.30
2019-01-12T06:01:01.487Z,1.40
2019-01-12T06:04:04.141Z,1.40
2019-01-12T06:07:06.828Z,1.50
2019-01-12T06:10:09.591Z,1.50
2019-01-12T06:13:12.183Z,1.50
2019-01-12T06:16:14.872Z,1.50
2019-01-12T06:19:17.431Z,1.50
2019-01-12T06:22:20.138Z,1.50
2019-01-12T06:25:22.805Z,1.40
2019-01-12T06:28:25.453Z,1.40
2019-01-12T06:31:28.097Z,1.40
2019-01-12T06:34:30.858Z,1.40
2019-01-12T06:37:33.542Z,1.50
2019-01-12T06:40:36.252Z,1.50
2019-01-12T06:43:39.052Z,1.50
2019-01-12T06:46:41.725Z,1.50
2019-01-12T06:49:44.256Z,1.50
2019-01-12T06:52:47.147Z,1.50
2019-01-12T06:55:49.833Z,1.50
2019-01-12T06:58:52.484Z,1.40
2019-01-12T07:01:55.215Z,1.40
2019-01-12T07:04:57.956Z,1.40
2019-01-12T07:08:00.711Z,1.30
2019-01-12T07:11:03.408Z,1.30
2019-01-12T07:14:06.107Z,1.30
2019-01-12T07:17:08.667Z,1.30
2019-01-12T07:20:15.942Z,1.20
2019-01-12T07:23:18.685Z,1.20
2019-01-12T07:26:21.345Z,1.20
2019-01-12T07:29:24.085Z,1.20
2019-01-12T07:32:26.698Z,1.20
2019-01-12T07:35:29.353Z,1.20
2019-01-12T07:38:32.000Z,1.20
2019-01-12T07:41:34.630Z,1.20
2019-01-12T07:44:37.176Z,1.20
2019-01-12T07:47:39.929Z,1.30
2019-01-12T07:50:42.539Z,1.30
2019-01-12T07:53:45.161Z,1.30
2019-01-12T07:56:47.747Z,1.30
2019-01-12T07:59:50.433Z,1.30
2019-01-12T08:02:53.104Z,1.30
2019-01-12T08:05:55.746Z,1.40
2019-01-12T08:08:58.400Z,1.40
2019-01-12T08:12:01.044Z,1.40
2019-01-12T08:15:04.565Z,1.40
2019-01-12T08:18:07.303Z,1.40
2019-01-12T08:21:09.942Z,1.30
2019-01-12T08:24:12.670Z,1.30
2019-01-12T08:27:15.383Z,1.40
2019-01-12T08:30:18.333Z,1.40
2019-01-12T08:33:21.064Z,1.40
2019-01-12T08:36:23.717Z,1.40
2019-01-12T08:39:26.372Z,1.50
2019-01-12T08:42:29.028Z,1.50
2019-01-12T08:45:31.817Z,1.60
2019-01-12T08:48:34.450Z,1.70
2019-01-12T08:51:37.213Z,1.70
2019-01-12T08:54:39.915Z,1.80
2019-01-12T08:57:42.579Z,1.80
2019-01-12T09:00:45.262Z,1.80
2019-01-12T09:03:48.006Z,1.90
2019-01-12T09:07:31.031Z,2.00
2019-01-12T09:10:33.701Z,2.10
2019-01-12T09:13:36.303Z,2.10
2019-01-12T09:16:38.992Z,2.20
2019-01-12T09:19:41.634Z,2.30
2019-01-12T09:22:45.206Z,2.30
2019-01-12T09:25:47.865Z,2.40
2019-01-12T09:28:50.452Z,2.50
2019-01-12T09:31:53.038Z,2.60
2019-01-12T09:34:55.851Z,2.70
2019-01-12T09:37:58.481Z,2.80
2019-01-12T09:41:01.136Z,2.90
2019-01-12T09:44:04.908Z,3.00
2019-01-12T09:47:07.640Z,3.10
2019-01-12T09:50:12.949Z,3.20
2019-01-12T09:53:16.812Z,3.20
2019-01-12T09:56:19.497Z,3.30
2019-01-12T09:59:22.471Z,3.30
2019-01-12T10:02:25.143Z,3.30
2019-01-12T10:05:27.767Z,3.30
2019-01-12T10:08:30.457Z,3.40
2019-01-12T10:11:33.223Z,3.40
2019-01-12T10:14:35.827Z,3.40
2019-01-12T10:17:38.488Z,3.50
2019-01-12T10:20:41.183Z,3.50
2019-01-12T10:23:43.939Z,3.50
2019-01-12T10:26:46.586Z,3.50
2019-01-12T10:29:49.207Z,3.50
2019-01-12T10:32:51.847Z,3.60
2019-01-12T10:35:54.421Z,3.60
2019-01-12T10:38:57.126Z,3.60
2019-01-12T10:41:59.797Z,3.50
2019-01-12T10:45:02.457Z,3.50
2019-01-12T10:48:05.102Z,3.60
2019-01-12T10:51:07.772Z,3.60
2019-01-12T10:54:10.426Z,3.70
2019-01-12T10:57:13.074Z,3.80
2019-01-12T11:00:38.127Z,3.90
2019-01-12T11:03:40.848Z,4.10
2019-01-12T11:06:43.506Z,4.50
2019-01-12T11:09:46.148Z,4.70
2019-01-12T11:12:48.894Z,4.80
2019-01-12T11:15:51.536Z,4.90
2019-01-12T11:18:54.187Z,4.90
2019-01-12T11:21:56.913Z,4.90
2019-01-12T11:24:59.718Z,5.00
2019-01-12T11:28:02.454Z,5.00
2019-01-12T11:31:05.280Z,4.90
2019-01-12T11:34:08.000Z,5.00
2019-01-12T11:37:10.751Z,5.00
2019-01-12T11:40:17.983Z,4.90
2019-01-12T11:43:20.640Z,4.90
2019-01-12T11:46:23.248Z,4.80
2019-01-12T11:49:25.931Z,4.80
2019-01-12T11:52:28.662Z,4.70
2019-01-12T11:55:31.366Z,4.70
2019-01-12T11:58:34.052Z,4.60
2019-01-12T12:01:36.933Z,4.70
2019-01-12T12:04:39.706Z,4.60
2019-01-12T12:07:42.503Z,4.60
2019-01-12T12:10:45.163Z,4.60
2019-01-12T12:13:47.971Z,4.60
2019-01-12T12:16:50.625Z,4.60
2019-01-12T12:19:53.368Z,4.60
2019-01-12T12:22:56.114Z,4.60
2019-01-12T12:25:58.801Z,4.50
2019-01-12T12:29:01.362Z,4.60
2019-01-12T12:32:04.093Z,4.50
2019-01-12T12:35:06.826Z,4.60
2019-01-12T12:38:10.044Z,4.60
2019-01-12T12:41:12.732Z,4.60
2019-01-12T12:44:15.414Z,4.70
2019-01-12T12:47:17.974Z,4.70
2019-01-12T12:50:20.676Z,4.70
2019-01-12T12:53:23.299Z,4.70
2019-01-12T12:56:26.224Z,4.60
2019-01-12T12:59:28.942Z,4.60
2019-01-12T13:02:31.627Z,4.60
2019-01-12T13:05:34.418Z,4.60
2019-01-12T13:08:37.153Z,4.50
2019-01-12T13:11:41.537Z,4.50
2019-01-12T13:14:44.222Z,4.50
2019-01-12T13:17:46.874Z,4.50
2019-01-12T13:20:49.568Z,4.60
2019-01-12T13:23:52.276Z,4.80
2019-01-12T13:26:55.025Z,5.00
2019-01-12T13:29:57.735Z,5.10
2019-01-12T13:33:00.356Z,5.20
2019-01-12T13:36:04.705Z,5.30
2019-01-12T13:39:07.654Z,5.30
2019-01-12T13:42:10.287Z,5.30
2019-01-12T13:45:14.774Z,5.30
2019-01-12T13:48:17.432Z,5.30
2019-01-12T13:51:21.342Z,5.30
2019-01-12T13:54:24.107Z,5.30
2019-01-12T13:57:26.858Z,5.10
2019-01-12T14:00:36.557Z,5.10
2019-01-12T14:03:39.170Z,5.00
2019-01-12T14:06:41.896Z,4.90
2019-01-12T14:09:44.590Z,4.90
2019-01-12T14:12:47.254Z,4.90
2019-01-12T14:15:49.958Z,4.80
2019-01-12T14:18:52.638Z,4.80
2019-01-12T14:21:55.357Z,4.80
2019-01-12T14:24:57.995Z,4.80
2019-01-12T14:28:00.775Z,4.80
2019-01-12T14:31:03.675Z,4.80
2019-01-12T14:34:06.296Z,4.70
2019-01-12T14:37:16.480Z,4.60
2019-01-12T14:40:19.231Z,4.60
2019-01-12T14:43:21.964Z,4.50
2019-01-12T14:46:24.634Z,4.50
2019-01-12T14:49:27.376Z,4.50
2019-01-12T14:52:29.982Z,4.50
2019-01-12T14:55:32.618Z,4.50
2019-01-12T14:58:35.297Z,4.50
2019-01-12T15:01:38.042Z,4.50
2019-01-12T15:04:40.723Z,4.40
2019-01-12T15:07:43.599Z,4.40
2019-01-12T15:10:46.325Z,4.40
2019-01-12T15:13:48.959Z,4.30
2019-01-12T15:16:51.676Z,4.30
2019-01-12T15:21:56.825Z,4.30
2019-01-12T15:24:59.634Z,4.30
2019-01-12T15:28:08.806Z,4.30
2019-01-12T15:31:07.088Z,4.30
2019-01-12T15:34:09.939Z,4.30
2019-01-12T15:37:12.726Z,4.20
2019-01-12T15:40:16.094Z,4.20
2019-01-12T15:43:18.883Z,4.20
2019-01-12T15:46:21.781Z,4.20
2019-01-12T15:49:24.548Z,4.20
2019-01-12T15:52:27.211Z,4.20
2019-01-12T15:55:29.938Z,4.20
2019-01-12T15:58:32.685Z,4.20
2019-01-12T16:01:35.406Z,4.10
2019-01-12T16:04:38.235Z,4.10
2019-01-12T16:07:41.028Z,4.10
2019-01-12T16:10:43.802Z,4.10
2019-01-12T16:13:46.583Z,4.00
2019-01-12T16:16:49.272Z,3.80
2019-01-12T16:19:51.866Z,3.70
2019-01-12T16:22:54.588Z,3.60
2019-01-12T16:25:57.421Z,3.60
2019-01-12T16:29:01.206Z,3.60
2019-01-12T16:32:04.026Z,3.60
2019-01-12T16:35:06.723Z,3.50
2019-01-12T16:38:09.335Z,3.50
2019-01-12T16:41:12.190Z,3.40
2019-01-12T16:44:14.739Z,3.30
2019-01-12T16:47:17.386Z,3.20
2019-01-12T16:50:20.120Z,3.10
2019-01-12T16:53:22.935Z,2.90
2019-01-12T16:56:25.636Z,2.90
2019-01-12T16:59:28.533Z,2.70
2019-01-12T17:02:31.204Z,2.70
2019-01-12T17:05:33.904Z,2.60
2019-01-12T17:08:36.496Z,2.60
2019-01-12T17:11:39.220Z,2.60
2019-01-12T17:14:42.376Z,2.60
2019-01-12T17:17:45.092Z,2.60
2019-01-12T17:20:47.767Z,2.60
2019-01-12T17:23:51.074Z,2.60
2019-01-12T17:26:53.793Z,2.60
2019-01-12T17:29:56.370Z,2.60
2019-01-12T17:32:59.137Z,2.60
2019-01-12T17:36:01.848Z,2.60
2019-01-12T17:39:08.654Z,2.60
2019-01-12T17:42:11.661Z,2.70
2019-01-12T17:45:17.726Z,2.80
2019-01-12T17:48:20.815Z,2.80
2019-01-12T17:51:23.460Z,2.90
2019-01-12T17:54:26.545Z,3.00
2019-01-12T17:57:29.327Z,3.00
2019-01-12T18:00:37.941Z,3.10
2019-01-12T18:03:40.601Z,3.10
2019-01-12T18:06:43.299Z,3.00
2019-01-12T18:09:45.914Z,2.90
2019-01-12T18:12:48.618Z,2.90
2019-01-12T18:15:51.166Z,2.80
2019-01-12T18:18:53.924Z,2.70
2019-01-12T18:21:56.579Z,2.70
2019-01-12T18:24:59.399Z,2.60
2019-01-12T18:28:01.966Z,2.60
2019-01-12T18:31:04.712Z,2.50
2019-01-12T18:34:07.359Z,2.50
2019-01-12T18:37:10.043Z,2.30
2019-01-12T18:40:14.353Z,2.30
2019-01-12T18:43:17.188Z,2.20
2019-01-12T18:46:19.881Z,2.10
2019-01-12T18:49:22.602Z,2.10
2019-01-12T18:52:25.262Z,2.10
2019-01-12T18:55:27.891Z,2.10
2019-01-12T18:58:30.633Z,2.10
2019-01-12T19:01:33.407Z,2.10
2019-01-12T19:04:36.175Z,2.10
2019-01-12T19:07:39.110Z,2.10
2019-01-12T19:10:41.877Z,2.10
2019-01-12T19:13:44.518Z,2.00
2019-01-12T19:16:48.554Z,1.80
2019-01-12T19:19:51.327Z,1.70
2019-01-12T19:22:54.773Z,1.60
2019-01-12T19:25:57.488Z,1.50
2019-01-12T19:29:06.391Z,1.50
2019-01-12T19:32:04.741Z,1.40
2019-01-12T19:35:07.457Z,1.40
2019-01-12T19:38:10.321Z,1.40
2019-01-12T19:41:13.169Z,1.40
2019-01-12T19:44:15.867Z,1.30
2019-01-12T19:47:18.601Z,1.20
2019-01-12T19:50:23.269Z,1.10
2019-01-12T19:53:26.680Z,1.00
2019-01-12T19:56:29.452Z,1.00
2019-01-12T19:59:32.175Z,0.80
2019-01-12T20:02:34.839Z,0.70
2019-01-12T20:05:37.518Z,0.60
2019-01-12T20:08:40.275Z,0.50
2019-01-12T20:11:43.058Z,0.40
2019-01-12T20:14:45.763Z,0.40
2019-01-12T20:17:48.487Z,0.40
2019-01-12T20:20:52.226Z,0.50
2019-01-12T20:23:54.896Z,0.50
2019-01-12T20:26:57.605Z,0.40
2019-01-12T20:30:00.230Z,0.30
2019-01-12T20:33:40.648Z,0.20
2019-01-12T20:37:26.987Z,0.10
2019-01-12T20:40:39.372Z,-0.10
2019-01-12T20:44:25.628Z,-0.20
2019-01-12T20:48:08.914Z,-0.30
2019-01-12T20:51:35.614Z,-0.40
2019-01-12T20:55:21.870Z,-0.40
2019-01-12T20:59:27.933Z,-0.40
2019-01-12T21:03:17.638Z,-0.30
2019-01-12T21:06:57.752Z,-0.30
2019-01-12T21:10:31.697Z,-0.40
2019-01-12T21:14:32.482Z,-0.40
2019-01-12T21:17:35.250Z,-0.40
2019-01-12T21:20:37.987Z,-0.30
2019-01-12T21:23:41.501Z,-0.40
2019-01-12T21:26:44.507Z,-0.40
2019-01-12T21:29:47.232Z,-0.40
2019-01-12T21:32:49.880Z,-0.30
2019-01-12T21:35:53.423Z,-0.30
2019-01-12T21:38:56.014Z,-0.30
2019-01-12T21:42:06.148Z,-0.20
2019-01-12T21:45:10.722Z,-0.30
2019-01-12T21:48:13.416Z,-0.20
2019-01-12T21:51:16.132Z,-0.30
2019-01-12T21:54:18.737Z,-0.40
2019-01-12T21:57:21.321Z,-0.30
2019-01-12T22:00:23.947Z,-0.40
2019-01-12T22:03:27.494Z,-0.40
2019-01-12T22:06:30.179Z,-0.50
2019-01-12T22:09:32.967Z,-0.50
2019-01-12T22:12:35.696Z,-0.50
2019-01-12T22:15:38.456Z,-0.50
2019-01-12T22:18:41.139Z,-0.60
2019-01-12T22:21:43.875Z,-0.50
2019-01-12T22:24:46.555Z,-0.50
2019-01-12T22:27:49.302Z,-0.50
2019-01-12T22:30:51.985Z,-0.50
2019-01-12T22:33:55.704Z,-0.40
2019-01-12T22:36:58.548Z,-0.40
2019-01-12T22:40:01.173Z,-0.30
2019-01-12T22:43:03.818Z,-0.40
2019-01-12T22:46:06.418Z,-0.40
2019-01-12T22:49:09.037Z,-0.40
2019-01-12T22:52:11.837Z,-0.50
2019-01-12T22:55:14.426Z,-0.50
2019-01-12T22:58:17.134Z,-0.50
2019-01-12T23:01:38.730Z,-0.50
2019-01-12T23:04:41.342Z,-0.50
2019-01-12T23:07:44.021Z,-0.50
2019-01-12T23:10:46.711Z,-0.50
2019-01-12T23:13:49.405Z,-0.60
2019-01-12T23:16:52.206Z,-0.60
2019-01-12T23:19:54.839Z,-0.70
2019-01-12T23:22:57.461Z,-0.80
2019-01-12T23:26:00.187Z,-0.80
2019-01-12T23:29:03.557Z,-0.90
2019-01-12T23:32:06.227Z,-0.80
2019-01-12T23:35:10.105Z,-0.70
2019-01-12T23:38:12.779Z,-0.70
2019-01-12T23:41:15.386Z,-0.90
2019-01-12T23:44:17.945Z,-0.90
2019-01-12T23:47:20.729Z,-0.80
2019-01-12T23:50:23.383Z,-0.80
2019-01-12T23:53:26.932Z,-0.80
2019-01-12T23:56:29.564Z,-0.80
2019-01-12T23:59:32.178Z,-0.70
